sensor_id;sensor_type;location;lat;lon;timestamp;pressure;altitude;pressure_sealevel;temperature;humidity
56402;BME280;42299;35.160;26.100;2023-06-26T00:03:48;100441.06;;;22.53;51.16
56402;BME280;42299;35.160;26.100;2023-06-26T00:14:10;100430.28;;;22.06;54.59
56402;BME280;42299;35.160;26.100;2023-06-26T00:24:34;100426.41;;;22.15;54.32
56402;BME280;42299;35.160;26.100;2023-06-26T00:34:57;100416.94;;;22.05;55.51
56402;BME280;42299;35.160;26.100;2023-06-26T00:45:21;100424.53;;;21.92;58.62
56402;BME280;42299;35.160;26.100;2023-06-26T00:55:44;100404.84;;;21.92;61.37
56402;BME280;42299;35.160;26.100;2023-06-26T01:06:11;100400.13;;;21.73;65.95
56402;BME280;42299;35.160;26.100;2023-06-26T01:16:35;100402.47;;;21.82;66.13
56402;BME280;42299;35.160;26.100;2023-06-26T01:27:01;100395.53;;;21.77;69.37
56402;BME280;42299;35.160;26.100;2023-06-26T01:37:25;100397.91;;;21.60;75.01
56402;BME280;42299;35.160;26.100;2023-06-26T01:47:51;100393.44;;;21.60;78.51
56402;BME280;42299;35.160;26.100;2023-06-26T01:58:15;100398.53;;;21.17;90.14
56402;BME280;42299;35.160;26.100;2023-06-26T02:08:40;100400.63;;;21.33;89.62
56402;BME280;42299;35.160;26.100;2023-06-26T02:19:02;100395.56;;;21.26;91.68
56402;BME280;42299;35.160;26.100;2023-06-26T02:29:27;100375.50;;;21.36;97.51
56402;BME280;42299;35.160;26.100;2023-06-26T02:39:49;100379.22;;;21.32;99.72
56402;BME280;42299;35.160;26.100;2023-06-26T02:50:14;100371.00;;;21.36;100.00
56402;BME280;42299;35.160;26.100;2023-06-26T03:00:55;100371.72;;;21.41;100.00
56402;BME280;42299;35.160;26.100;2023-06-26T03:11:20;100375.00;;;21.50;100.00
56402;BME280;42299;35.160;26.100;2023-06-26T03:21:44;100378.31;;;21.58;100.00
56402;BME280;42299;35.160;26.100;2023-06-26T03:32:09;100371.63;;;21.93;100.00
56402;BME280;42299;35.160;26.100;2023-06-26T03:42:32;100357.56;;;22.33;100.00
56402;BME280;42299;35.160;26.100;2023-06-26T03:52:57;100369.84;;;22.63;100.00
56402;BME280;42299;35.160;26.100;2023-06-26T04:03:20;100373.72;;;22.99;100.00
56402;BME280;42299;35.160;26.100;2023-06-26T04:13:45;100364.38;;;23.50;100.00
56402;BME280;42299;35.160;26.100;2023-06-26T04:24:08;100359.72;;;24.13;100.00
56402;BME280;42299;35.160;26.100;2023-06-26T04:34:32;100357.31;;;24.82;100.00
56402;BME280;42299;35.160;26.100;2023-06-26T04:44:57;100364.91;;;25.46;100.00
56402;BME280;42299;35.160;26.100;2023-06-26T04:55:21;100376.69;;;26.12;100.00
56402;BME280;42299;35.160;26.100;2023-06-26T05:05:44;100376.25;;;26.84;100.00
56402;BME280;42299;35.160;26.100;2023-06-26T05:16:09;100382.44;;;27.63;81.34
56402;BME280;42299;35.160;26.100;2023-06-26T05:26:32;100386.09;;;28.48;70.84
56402;BME280;42299;35.160;26.100;2023-06-26T05:36:58;100382.63;;;28.73;62.42
56402;BME280;42299;35.160;26.100;2023-06-26T05:47:22;100384.22;;;29.83;53.41
56402;BME280;42299;35.160;26.100;2023-06-26T05:57:47;100389.81;;;30.32;48.14
56402;BME280;42299;35.160;26.100;2023-06-26T06:08:11;100387.66;;;31.34;44.30
56402;BME280;42299;35.160;26.100;2023-06-26T06:18:35;100405.69;;;32.29;40.79
56402;BME280;42299;35.160;26.100;2023-06-26T06:28:57;100399.88;;;33.32;36.42
56402;BME280;42299;35.160;26.100;2023-06-26T06:39:22;100396.28;;;33.52;33.90
56402;BME280;42299;35.160;26.100;2023-06-26T06:49:45;100387.88;;;32.90;34.15
56402;BME280;42299;35.160;26.100;2023-06-26T07:00:11;100397.81;;;33.98;33.88
56402;BME280;42299;35.160;26.100;2023-06-26T07:10:35;100390.44;;;34.50;32.59
56402;BME280;42299;35.160;26.100;2023-06-26T07:20:59;100386.00;;;34.98;32.35
56402;BME280;42299;35.160;26.100;2023-06-26T07:31:22;100397.34;;;35.34;31.87
56402;BME280;42299;35.160;26.100;2023-06-26T07:41:46;100391.41;;;35.58;31.64
56402;BME280;42299;35.160;26.100;2023-06-26T07:52:08;100396.44;;;36.01;31.48
56402;BME280;42299;35.160;26.100;2023-06-26T08:02:33;100402.97;;;35.90;30.74
56402;BME280;42299;35.160;26.100;2023-06-26T08:12:56;100399.94;;;35.45;31.49
56402;BME280;42299;35.160;26.100;2023-06-26T08:23:20;100419.72;;;35.58;32.43
56402;BME280;42299;35.160;26.100;2023-06-26T08:33:45;100420.47;;;35.31;35.61
56402;BME280;42299;35.160;26.100;2023-06-26T08:44:10;100421.75;;;35.66;37.74
56402;BME280;42299;35.160;26.100;2023-06-26T08:54:33;100438.72;;;35.80;38.55
56402;BME280;42299;35.160;26.100;2023-06-26T09:04:58;100441.31;;;35.82;40.21
56402;BME280;42299;35.160;26.100;2023-06-26T09:15:21;100450.09;;;36.05;39.71
56402;BME280;42299;35.160;26.100;2023-06-26T09:25:47;100450.22;;;36.13;38.86
56402;BME280;42299;35.160;26.100;2023-06-26T09:36:19;100444.66;;;36.51;38.36
56402;BME280;42299;35.160;26.100;2023-06-26T09:46:46;100440.78;;;37.08;36.82
56402;BME280;42299;35.160;26.100;2023-06-26T09:57:09;100440.75;;;37.36;34.41
56402;BME280;42299;35.160;26.100;2023-06-26T10:07:38;100442.25;;;37.30;32.84
56402;BME280;42299;35.160;26.100;2023-06-26T10:18:02;100425.94;;;36.92;32.12
56402;BME280;42299;35.160;26.100;2023-06-26T10:28:22;100429.75;;;36.44;32.40
56402;BME280;42299;35.160;26.100;2023-06-26T10:38:51;100413.94;;;36.56;31.43
56402;BME280;42299;35.160;26.100;2023-06-26T10:49:16;100417.25;;;36.69;31.05
56402;BME280;42299;35.160;26.100;2023-06-26T10:59:40;100413.78;;;36.94;31.05
56402;BME280;42299;35.160;26.100;2023-06-26T11:10:08;100410.28;;;37.55;30.39
56402;BME280;42299;35.160;26.100;2023-06-26T11:20:32;100403.50;;;37.59;30.22
56402;BME280;42299;35.160;26.100;2023-06-26T11:30:57;100403.69;;;37.30;30.67
56402;BME280;42299;35.160;26.100;2023-06-26T11:41:19;100425.94;;;36.92;30.71
56402;BME280;42299;35.160;26.100;2023-06-26T11:51:46;100422.25;;;36.37;31.85
56402;BME280;42299;35.160;26.100;2023-06-26T12:02:11;100421.44;;;36.26;32.14
56402;BME280;42299;35.160;26.100;2023-06-26T12:12:37;100418.44;;;35.91;32.94
56402;BME280;42299;35.160;26.100;2023-06-26T12:23:00;100421.34;;;35.80;32.92
56402;BME280;42299;35.160;26.100;2023-06-26T12:33:26;100425.84;;;35.90;32.19
56402;BME280;42299;35.160;26.100;2023-06-26T12:43:49;100414.72;;;36.39;31.50
56402;BME280;42299;35.160;26.100;2023-06-26T12:54:19;100418.09;;;36.32;32.32
56402;BME280;42299;35.160;26.100;2023-06-26T13:04:42;100410.53;;;36.81;32.69
56402;BME280;42299;35.160;26.100;2023-06-26T13:15:08;100399.91;;;36.86;32.77
56402;BME280;42299;35.160;26.100;2023-06-26T13:25:31;100406.59;;;36.47;33.10
56402;BME280;42299;35.160;26.100;2023-06-26T13:35:55;100405.38;;;36.59;32.50
56402;BME280;42299;35.160;26.100;2023-06-26T13:46:18;100395.25;;;36.13;33.24
56402;BME280;42299;35.160;26.100;2023-06-26T13:56:43;100392.25;;;35.97;34.24
56402;BME280;42299;35.160;26.100;2023-06-26T14:07:06;100390.06;;;36.10;34.10
56402;BME280;42299;35.160;26.100;2023-06-26T14:17:31;100399.19;;;36.01;34.33
56402;BME280;42299;35.160;26.100;2023-06-26T14:27:57;100400.03;;;36.20;34.69
56402;BME280;42299;35.160;26.100;2023-06-26T14:38:22;100385.81;;;36.25;34.92
56402;BME280;42299;35.160;26.100;2023-06-26T14:48:44;100379.34;;;36.07;35.07
56402;BME280;42299;35.160;26.100;2023-06-26T14:59:10;100385.34;;;35.44;35.90
56402;BME280;42299;35.160;26.100;2023-06-26T15:09:33;100383.94;;;34.81;36.88
56402;BME280;42299;35.160;26.100;2023-06-26T15:19:57;100375.22;;;34.06;38.07
56402;BME280;42299;35.160;26.100;2023-06-26T15:30:20;100376.91;;;33.44;39.32
56402;BME280;42299;35.160;26.100;2023-06-26T15:40:44;100378.25;;;32.75;40.92
56402;BME280;42299;35.160;26.100;2023-06-26T15:51:08;100387.00;;;32.12;42.32
56402;BME280;42299;35.160;26.100;2023-06-26T16:01:33;100390.97;;;31.50;45.94
56402;BME280;42299;35.160;26.100;2023-06-26T16:11:55;100390.50;;;31.09;48.41
56402;BME280;42299;35.160;26.100;2023-06-26T16:22:20;100394.00;;;30.62;58.66
56402;BME280;42299;35.160;26.100;2023-06-26T16:32:42;100394.69;;;30.27;61.06
56402;BME280;42299;35.160;26.100;2023-06-26T16:43:07;100390.47;;;29.98;62.65
56402;BME280;42299;35.160;26.100;2023-06-26T16:53:29;100394.97;;;29.59;65.34
56402;BME280;42299;35.160;26.100;2023-06-26T17:03:53;100397.81;;;29.31;66.68
56402;BME280;42299;35.160;26.100;2023-06-26T17:14:16;100402.06;;;29.08;65.67
56402;BME280;42299;35.160;26.100;2023-06-26T17:24:40;100403.50;;;28.87;65.14
56402;BME280;42299;35.160;26.100;2023-06-26T17:35:03;100412.31;;;28.62;67.45
56402;BME280;42299;35.160;26.100;2023-06-26T17:45:29;100416.53;;;28.39;70.17
56402;BME280;42299;35.160;26.100;2023-06-26T17:55:54;100414.75;;;28.10;75.91
56402;BME280;42299;35.160;26.100;2023-06-26T18:06:19;100424.63;;;27.97;77.36
56402;BME280;42299;35.160;26.100;2023-06-26T18:16:42;100437.56;;;27.77;82.49
56402;BME280;42299;35.160;26.100;2023-06-26T18:27:06;100442.19;;;27.61;85.43
56402;BME280;42299;35.160;26.100;2023-06-26T18:37:30;100446.56;;;27.48;88.60
56402;BME280;42299;35.160;26.100;2023-06-26T18:47:54;100466.78;;;27.43;92.16
56402;BME280;42299;35.160;26.100;2023-06-26T18:58:17;100470.91;;;27.34;95.09
56402;BME280;42299;35.160;26.100;2023-06-26T19:08:41;100473.25;;;27.24;97.70
56402;BME280;42299;35.160;26.100;2023-06-26T19:19:04;100487.44;;;27.14;98.98
56402;BME280;42299;35.160;26.100;2023-06-26T19:29:28;100490.84;;;27.02;100.00
56402;BME280;42299;35.160;26.100;2023-06-26T19:39:51;100485.72;;;26.80;100.00
56402;BME280;42299;35.160;26.100;2023-06-26T19:50:15;100485.13;;;26.75;100.00
56402;BME280;42299;35.160;26.100;2023-06-26T20:00:38;100487.38;;;26.67;100.00
56402;BME280;42299;35.160;26.100;2023-06-26T20:11:02;100489.81;;;26.55;100.00
56402;BME280;42299;35.160;26.100;2023-06-26T20:21:25;100494.75;;;26.47;100.00
56402;BME280;42299;35.160;26.100;2023-06-26T20:31:49;100497.88;;;26.40;100.00
56402;BME280;42299;35.160;26.100;2023-06-26T20:42:13;100487.72;;;26.28;100.00
56402;BME280;42299;35.160;26.100;2023-06-26T20:52:43;100486.66;;;26.13;100.00
56402;BME280;42299;35.160;26.100;2023-06-26T21:03:06;100486.03;;;26.08;100.00
56402;BME280;42299;35.160;26.100;2023-06-26T21:13:31;100481.75;;;26.04;100.00
56402;BME280;42299;35.160;26.100;2023-06-26T21:23:54;100475.06;;;25.94;100.00
56402;BME280;42299;35.160;26.100;2023-06-26T21:34:20;100484.16;;;25.93;100.00
56402;BME280;42299;35.160;26.100;2023-06-26T21:44:42;100476.75;;;25.79;100.00
56402;BME280;42299;35.160;26.100;2023-06-26T21:54:47;100480.47;;;25.76;100.00
56402;BME280;42299;35.160;26.100;2023-06-26T22:05:11;100477.78;;;25.76;100.00
56402;BME280;42299;35.160;26.100;2023-06-26T22:15:36;100485.81;;;25.78;100.00
56402;BME280;42299;35.160;26.100;2023-06-26T22:25:58;100494.25;;;25.72;100.00
56402;BME280;42299;35.160;26.100;2023-06-26T22:36:22;100499.16;;;25.64;100.00
56402;BME280;42299;35.160;26.100;2023-06-26T22:46:46;100476.91;;;25.59;100.00
56402;BME280;42299;35.160;26.100;2023-06-26T22:57:11;100477.19;;;25.53;100.00
56402;BME280;42299;35.160;26.100;2023-06-26T23:07:27;100466.00;;;25.41;100.00
56402;BME280;42299;35.160;26.100;2023-06-26T23:17:53;100462.97;;;25.30;100.00
56402;BME280;42299;35.160;26.100;2023-06-26T23:28:16;100456.13;;;25.23;100.00
56402;BME280;42299;35.160;26.100;2023-06-26T23:38:40;100458.25;;;25.17;100.00
56402;BME280;42299;35.160;26.100;2023-06-26T23:49:03;100470.03;;;24.97;100.00
56402;BME280;42299;35.160;26.100;2023-06-26T23:59:29;100471.47;;;24.85;100.00
